sensor_id;sensor_type;location;lat;lon;timestamp;pressure;altitude;pressure_sealevel;temperature;humidity
1694;BME280;71975;47.068;15.408;2023-09-12T00:00:03;97130.00;;;22.80;70.49
1694;BME280;71975;47.068;15.408;2023-09-12T00:05:07;97122.50;;;22.80;70.14
1694;BME280;71975;47.068;15.408;2023-09-12T00:10:10;97122.19;;;22.73;71.15
1694;BME280;71975;47.068;15.408;2023-09-12T00:15:14;97108.59;;;22.64;71.32
1694;BME280;71975;47.068;15.408;2023-09-12T00:20:17;97107.50;;;22.56;71.60
1694;BME280;71975;47.068;15.408;2023-09-12T00:25:20;97104.44;;;22.48;71.98
1694;BME280;71975;47.068;15.408;2023-09-12T00:30:24;97100.97;;;22.48;71.51
1694;BME280;71975;47.068;15.408;2023-09-12T00:35:27;97094.44;;;22.51;71.88
1694;BME280;71975;47.068;15.408;2023-09-12T00:40:30;97092.41;;;22.45;72.13
1694;BME280;71975;47.068;15.408;2023-09-12T00:45:35;97078.88;;;22.48;72.30
1694;BME280;71975;47.068;15.408;2023-09-12T00:50:39;97084.94;;;22.52;72.29
1694;BME280;71975;47.068;15.408;2023-09-12T00:55:46;97089.16;;;22.47;71.65
1694;BME280;71975;47.068;15.408;2023-09-12T01:00:52;97092.41;;;22.45;72.05
1694;BME280;71975;47.068;15.408;2023-09-12T01:05:57;97082.00;;;22.29;73.14
1694;BME280;71975;47.068;15.408;2023-09-12T01:11:02;97086.97;;;22.20;73.44
1694;BME280;71975;47.068;15.408;2023-09-12T01:16:06;97095.50;;;22.22;73.47
1694;BME280;71975;47.068;15.408;2023-09-12T01:21:30;97089.66;;;22.09;73.93
1694;BME280;71975;47.068;15.408;2023-09-12T01:26:44;97088.88;;;22.08;73.52
1694;BME280;71975;47.068;15.408;2023-09-12T01:31:54;97085.16;;;22.11;73.48
1694;BME280;71975;47.068;15.408;2023-09-12T01:36:57;97084.78;;;21.98;74.56
1694;BME280;71975;47.068;15.408;2023-09-12T01:42:01;97085.56;;;21.99;74.69
1694;BME280;71975;47.068;15.408;2023-09-12T01:47:06;97081.97;;;21.87;75.01
1694;BME280;71975;47.068;15.408;2023-09-12T01:52:10;97092.75;;;21.91;74.50
1694;BME280;71975;47.068;15.408;2023-09-12T01:57:14;97103.53;;;21.68;75.49
1694;BME280;71975;47.068;15.408;2023-09-12T02:02:19;97104.28;;;21.69;75.43
1694;BME280;71975;47.068;15.408;2023-09-12T02:07:23;97104.19;;;21.58;75.90
1694;BME280;71975;47.068;15.408;2023-09-12T02:12:26;97100.84;;;21.48;76.65
1694;BME280;71975;47.068;15.408;2023-09-12T02:17:31;97101.59;;;21.49;76.82
1694;BME280;71975;47.068;15.408;2023-09-12T02:22:34;97111.38;;;21.30;78.52
1694;BME280;71975;47.068;15.408;2023-09-12T02:27:37;97102.31;;;21.24;79.25
1694;BME280;71975;47.068;15.408;2023-09-12T02:32:42;97099.31;;;21.22;79.74
1694;BME280;71975;47.068;15.408;2023-09-12T02:37:45;97111.28;;;21.19;79.49
1694;BME280;71975;47.068;15.408;2023-09-12T02:42:48;97108.78;;;21.21;78.80
1694;BME280;71975;47.068;15.408;2023-09-12T02:47:53;97102.53;;;21.20;79.41
1694;BME280;71975;47.068;15.408;2023-09-12T02:52:56;97094.09;;;21.29;78.83
1694;BME280;71975;47.068;15.408;2023-09-12T02:57:59;97097.63;;;21.30;78.49
1694;BME280;71975;47.068;15.408;2023-09-12T03:03:04;97096.59;;;21.27;79.07
1694;BME280;71975;47.068;15.408;2023-09-12T03:08:07;97093.63;;;21.31;78.51
1694;BME280;71975;47.068;15.408;2023-09-12T03:13:11;97097.72;;;21.15;78.87
1694;BME280;71975;47.068;15.408;2023-09-12T03:18:15;97102.88;;;21.07;79.83
1694;BME280;71975;47.068;15.408;2023-09-12T03:23:20;97096.53;;;21.01;80.39
1694;BME280;71975;47.068;15.408;2023-09-12T03:28:23;97096.53;;;21.01;79.53
1694;BME280;71975;47.068;15.408;2023-09-12T03:33:27;97090.69;;;20.94;80.78
1694;BME280;71975;47.068;15.408;2023-09-12T03:38:30;97097.91;;;20.91;80.42
1694;BME280;71975;47.068;15.408;2023-09-12T03:43:33;97092.66;;;20.93;79.68
1694;BME280;71975;47.068;15.408;2023-09-12T03:48:38;97097.19;;;20.76;80.49
1694;BME280;71975;47.068;15.408;2023-09-12T03:53:40;97089.09;;;20.67;81.25
1694;BME280;71975;47.068;15.408;2023-09-12T03:58:43;97096.75;;;20.78;80.59
1694;BME280;71975;47.068;15.408;2023-09-12T04:03:48;97093.63;;;20.90;79.26
1694;BME280;71975;47.068;15.408;2023-09-12T04:08:50;97105.53;;;20.82;80.75
1694;BME280;71975;47.068;15.408;2023-09-12T04:13:53;97101.75;;;20.79;79.85
1694;BME280;71975;47.068;15.408;2023-09-12T04:18:58;97103.66;;;20.53;81.43
1694;BME280;71975;47.068;15.408;2023-09-12T04:24:00;97107.88;;;20.54;81.46
1694;BME280;71975;47.068;15.408;2023-09-12T04:29:04;97112.28;;;20.46;83.39
1694;BME280;71975;47.068;15.408;2023-09-12T04:34:08;97108.66;;;20.55;82.66
1694;BME280;71975;47.068;15.408;2023-09-12T04:39:11;97113.28;;;20.83;80.65
1694;BME280;71975;47.068;15.408;2023-09-12T04:44:14;97116.34;;;20.85;79.15
1694;BME280;71975;47.068;15.408;2023-09-12T04:49:19;97117.84;;;20.86;78.56
1694;BME280;71975;47.068;15.408;2023-09-12T04:54:21;97114.53;;;20.82;78.49
1694;BME280;71975;47.068;15.408;2023-09-12T04:59:24;97118.78;;;20.83;79.13
1694;BME280;71975;47.068;15.408;2023-09-12T05:04:29;97125.16;;;20.89;79.08
1694;BME280;71975;47.068;15.408;2023-09-12T05:09:32;97126.59;;;20.85;80.12
1694;BME280;71975;47.068;15.408;2023-09-12T05:14:35;97129.69;;;20.92;79.22
1694;BME280;71975;47.068;15.408;2023-09-12T05:19:39;97124.63;;;21.05;78.52
1694;BME280;71975;47.068;15.408;2023-09-12T05:24:42;97125.22;;;21.35;76.58
1694;BME280;71975;47.068;15.408;2023-09-12T05:29:45;97135.63;;;21.26;79.80
1694;BME280;71975;47.068;15.408;2023-09-12T05:34:49;97142.16;;;21.28;80.43
1694;BME280;71975;47.068;15.408;2023-09-12T05:40:00;97137.38;;;21.49;78.95
1694;BME280;71975;47.068;15.408;2023-09-12T05:45:06;97139.94;;;21.78;77.36
1694;BME280;71975;47.068;15.408;2023-09-12T05:50:11;97150.06;;;22.12;75.91
1694;BME280;71975;47.068;15.408;2023-09-12T05:55:14;97147.72;;;22.31;75.01
1694;BME280;71975;47.068;15.408;2023-09-12T06:00:17;97148.28;;;22.40;74.56
1694;BME280;71975;47.068;15.408;2023-09-12T06:05:21;97145.72;;;22.63;73.39
1694;BME280;71975;47.068;15.408;2023-09-12T06:10:24;97150.78;;;22.70;73.21
1694;BME280;71975;47.068;15.408;2023-09-12T06:15:27;97128.94;;;23.14;70.98
1694;BME280;71975;47.068;15.408;2023-09-12T06:20:31;97143.38;;;23.40;69.16
1694;BME280;71975;47.068;15.408;2023-09-12T06:25:34;97145.94;;;23.60;68.46
1694;BME280;71975;47.068;15.408;2023-09-12T06:30:37;97139.47;;;23.97;66.84
1694;BME280;71975;47.068;15.408;2023-09-12T06:35:41;97136.50;;;24.45;64.41
1694;BME280;71975;47.068;15.408;2023-09-12T06:40:44;97135.56;;;25.22;61.19
1694;BME280;71975;47.068;15.408;2023-09-12T06:45:49;97137.13;;;26.15;57.08
1694;BME280;71975;47.068;15.408;2023-09-12T06:51:04;97139.09;;;27.23;52.95
1694;BME280;71975;47.068;15.408;2023-09-12T06:56:16;97131.00;;;28.18;49.15
1694;BME280;71975;47.068;15.408;2023-09-12T07:01:19;97138.25;;;28.84;47.12
1694;BME280;71975;47.068;15.408;2023-09-12T07:06:24;97136.56;;;30.14;43.58
1694;BME280;71975;47.068;15.408;2023-09-12T07:11:27;97140.16;;;31.05;40.98
1694;BME280;71975;47.068;15.408;2023-09-12T07:16:30;97140.34;;;31.94;38.27
1694;BME280;71975;47.068;15.408;2023-09-12T07:21:35;97152.81;;;32.66;36.48
1694;BME280;71975;47.068;15.408;2023-09-12T07:26:38;97150.13;;;33.29;35.31
1694;BME280;71975;47.068;15.408;2023-09-12T07:31:41;97149.88;;;33.97;34.72
1694;BME280;71975;47.068;15.408;2023-09-12T07:36:45;97152.56;;;35.36;32.11
1694;BME280;71975;47.068;15.408;2023-09-12T07:41:48;97146.00;;;35.84;30.93
1694;BME280;71975;47.068;15.408;2023-09-12T07:46:51;97150.41;;;36.31;30.18
1694;BME280;71975;47.068;15.408;2023-09-12T07:51:55;97152.91;;;36.54;29.84
1694;BME280;71975;47.068;15.408;2023-09-12T07:56:58;97161.84;;;37.06;29.08
1694;BME280;71975;47.068;15.408;2023-09-12T08:02:01;97158.94;;;37.42;28.40
1694;BME280;71975;47.068;15.408;2023-09-12T08:07:07;97166.31;;;37.09;29.02
1694;BME280;71975;47.068;15.408;2023-09-12T08:12:10;97180.66;;;37.68;28.22
1694;BME280;71975;47.068;15.408;2023-09-12T08:17:14;97172.69;;;37.00;29.37
1694;BME280;71975;47.068;15.408;2023-09-12T08:22:19;97169.78;;;37.65;27.94
1694;BME280;71975;47.068;15.408;2023-09-12T08:27:21;97173.22;;;37.44;28.50
1694;BME280;71975;47.068;15.408;2023-09-12T08:32:25;97175.84;;;36.77;28.44
1694;BME280;71975;47.068;15.408;2023-09-12T08:37:29;97173.75;;;35.71;30.09
1694;BME280;71975;47.068;15.408;2023-09-12T08:42:38;97172.75;;;37.48;28.11
1694;BME280;71975;47.068;15.408;2023-09-12T08:47:44;97169.88;;;37.19;28.46
1694;BME280;71975;47.068;15.408;2023-09-12T08:52:49;97167.16;;;36.92;28.70
1694;BME280;71975;47.068;15.408;2023-09-12T08:58:08;97171.31;;;38.35;26.69
1694;BME280;71975;47.068;15.408;2023-09-12T09:03:11;97170.38;;;37.73;27.35
1694;BME280;71975;47.068;15.408;2023-09-12T09:08:17;97163.44;;;38.33;26.30
1694;BME280;71975;47.068;15.408;2023-09-12T09:13:21;97158.97;;;39.01;25.29
1694;BME280;71975;47.068;15.408;2023-09-12T09:18:24;97156.59;;;38.67;25.67
1694;BME280;71975;47.068;15.408;2023-09-12T09:23:29;97155.06;;;37.66;27.33
1694;BME280;71975;47.068;15.408;2023-09-12T09:28:32;97153.59;;;39.27;25.36
1694;BME280;71975;47.068;15.408;2023-09-12T09:33:36;97158.09;;;39.95;23.95
1694;BME280;71975;47.068;15.408;2023-09-12T09:38:40;97159.94;;;39.58;24.09
1694;BME280;71975;47.068;15.408;2023-09-12T09:43:43;97152.22;;;38.45;25.27
1694;BME280;71975;47.068;15.408;2023-09-12T09:48:49;97161.81;;;38.21;25.98
1694;BME280;71975;47.068;15.408;2023-09-12T09:53:53;97152.97;;;39.49;24.27
1694;BME280;71975;47.068;15.408;2023-09-12T09:59:00;97154.59;;;40.18;23.18
1694;BME280;71975;47.068;15.408;2023-09-12T10:04:03;97147.09;;;39.57;23.62
1694;BME280;71975;47.068;15.408;2023-09-12T10:09:10;97142.53;;;39.31;24.51
1694;BME280;71975;47.068;15.408;2023-09-12T10:14:15;97138.47;;;39.12;24.93
1694;BME280;71975;47.068;15.408;2023-09-12T10:19:23;97127.13;;;39.88;24.02
1694;BME280;71975;47.068;15.408;2023-09-12T10:24:27;97126.03;;;40.49;23.25
1694;BME280;71975;47.068;15.408;2023-09-12T10:29:32;97115.53;;;40.63;23.04
1694;BME280;71975;47.068;15.408;2023-09-12T10:34:37;97120.94;;;40.82;22.89
1694;BME280;71975;47.068;15.408;2023-09-12T10:39:47;97115.00;;;40.20;23.40
1694;BME280;71975;47.068;15.408;2023-09-12T10:44:51;97115.09;;;39.66;24.08
1694;BME280;71975;47.068;15.408;2023-09-12T10:49:54;97118.09;;;39.47;24.17
1694;BME280;71975;47.068;15.408;2023-09-12T10:54:59;97112.16;;;40.43;23.09
1694;BME280;71975;47.068;15.408;2023-09-12T11:00:11;97106.03;;;40.23;22.64
1694;BME280;71975;47.068;15.408;2023-09-12T11:05:37;97108.72;;;40.68;22.71
1694;BME280;71975;47.068;15.408;2023-09-12T11:10:41;97110.19;;;40.11;23.04
1694;BME280;71975;47.068;15.408;2023-09-12T11:16:11;97107.88;;;40.30;21.90
1694;BME280;71975;47.068;15.408;2023-09-12T11:21:14;97101.31;;;40.16;22.23
1694;BME280;71975;47.068;15.408;2023-09-12T11:26:19;97098.28;;;39.58;23.81
1694;BME280;71975;47.068;15.408;2023-09-12T11:31:25;97096.88;;;40.13;23.14
1694;BME280;71975;47.068;15.408;2023-09-12T11:36:29;97095.63;;;40.86;22.15
1694;BME280;71975;47.068;15.408;2023-09-12T11:41:40;97086.53;;;40.64;22.65
1694;BME280;71975;47.068;15.408;2023-09-12T11:46:43;97080.47;;;40.93;22.51
1694;BME280;71975;47.068;15.408;2023-09-12T11:51:47;97081.59;;;40.53;23.50
1694;BME280;71975;47.068;15.408;2023-09-12T11:56:52;97070.72;;;41.21;23.08
1694;BME280;71975;47.068;15.408;2023-09-12T12:01:58;97072.00;;;41.07;23.09
1694;BME280;71975;47.068;15.408;2023-09-12T12:07:01;97077.78;;;40.25;24.61
1694;BME280;71975;47.068;15.408;2023-09-12T12:12:11;97075.78;;;40.28;24.42
1694;BME280;71975;47.068;15.408;2023-09-12T12:17:15;97074.13;;;39.90;24.54
1694;BME280;71975;47.068;15.408;2023-09-12T12:22:18;97063.16;;;39.52;25.34
1694;BME280;71975;47.068;15.408;2023-09-12T12:27:22;97063.63;;;40.97;23.87
1694;BME280;71975;47.068;15.408;2023-09-12T12:32:25;97058.97;;;40.90;23.39
1694;BME280;71975;47.068;15.408;2023-09-12T12:37:29;97050.41;;;41.38;23.18
1694;BME280;71975;47.068;15.408;2023-09-12T12:42:37;97056.31;;;41.42;23.36
1694;BME280;71975;47.068;15.408;2023-09-12T12:47:58;97050.63;;;40.57;24.16
1694;BME280;71975;47.068;15.408;2023-09-12T12:53:01;97056.78;;;41.50;22.73
1694;BME280;71975;47.068;15.408;2023-09-12T12:58:06;97039.22;;;40.92;22.77
1694;BME280;71975;47.068;15.408;2023-09-12T13:03:09;97044.31;;;39.56;24.68
1694;BME280;71975;47.068;15.408;2023-09-12T13:08:12;97044.81;;;38.57;27.58
1694;BME280;71975;47.068;15.408;2023-09-12T13:13:16;97039.53;;;38.72;26.17
1694;BME280;71975;47.068;15.408;2023-09-12T13:18:19;97050.06;;;37.70;28.17
1694;BME280;71975;47.068;15.408;2023-09-12T13:23:22;97050.09;;;36.84;28.36
1694;BME280;71975;47.068;15.408;2023-09-12T13:28:28;97044.44;;;36.84;27.92
1694;BME280;71975;47.068;15.408;2023-09-12T13:33:30;97037.28;;;36.64;28.63
1694;BME280;71975;47.068;15.408;2023-09-12T13:38:34;97033.56;;;35.79;29.65
1694;BME280;71975;47.068;15.408;2023-09-12T13:43:38;97022.13;;;35.77;30.09
1694;BME280;71975;47.068;15.408;2023-09-12T13:48:42;97025.34;;;34.68;31.54
1694;BME280;71975;47.068;15.408;2023-09-12T13:53:47;97012.97;;;34.98;31.16
1694;BME280;71975;47.068;15.408;2023-09-12T13:58:52;97018.31;;;34.11;31.40
1694;BME280;71975;47.068;15.408;2023-09-12T14:03:55;97007.13;;;34.03;32.49
1694;BME280;71975;47.068;15.408;2023-09-12T14:08:59;97015.41;;;34.43;32.26
1694;BME280;71975;47.068;15.408;2023-09-12T14:14:06;97019.97;;;33.89;33.80
1694;BME280;71975;47.068;15.408;2023-09-12T14:19:18;97012.44;;;33.91;33.68
1694;BME280;71975;47.068;15.408;2023-09-12T14:24:25;97030.00;;;33.99;33.30
1694;BME280;71975;47.068;15.408;2023-09-12T14:29:33;97021.13;;;34.11;33.48
1694;BME280;71975;47.068;15.408;2023-09-12T14:34:41;97025.38;;;33.62;34.09
1694;BME280;71975;47.068;15.408;2023-09-12T14:39:48;97024.69;;;33.54;34.13
1694;BME280;71975;47.068;15.408;2023-09-12T14:44:56;97023.94;;;33.46;34.31
1694;BME280;71975;47.068;15.408;2023-09-12T14:50:02;97022.88;;;32.87;34.31
1694;BME280;71975;47.068;15.408;2023-09-12T14:55:08;97021.22;;;32.84;35.32
1694;BME280;71975;47.068;15.408;2023-09-12T15:00:15;97013.78;;;32.56;35.71
1694;BME280;71975;47.068;15.408;2023-09-12T15:05:21;97017.84;;;32.77;34.93
1694;BME280;71975;47.068;15.408;2023-09-12T15:10:26;97017.81;;;32.85;35.84
1694;BME280;71975;47.068;15.408;2023-09-12T15:15:33;97029.25;;;32.80;35.50
1694;BME280;71975;47.068;15.408;2023-09-12T15:20:37;97015.25;;;32.80;35.67
1694;BME280;71975;47.068;15.408;2023-09-12T15:25:41;97024.06;;;32.46;36.67
1694;BME280;71975;47.068;15.408;2023-09-12T15:30:48;97031.91;;;32.47;37.87
1694;BME280;71975;47.068;15.408;2023-09-12T15:35:53;97024.25;;;32.25;38.16
1694;BME280;71975;47.068;15.408;2023-09-12T15:40:57;97020.34;;;32.36;36.72
1694;BME280;71975;47.068;15.408;2023-09-12T15:46:06;97026.31;;;32.17;37.62
1694;BME280;71975;47.068;15.408;2023-09-12T15:51:11;97019.59;;;32.05;38.12
1694;BME280;71975;47.068;15.408;2023-09-12T15:56:16;97014.56;;;32.11;37.65
1694;BME280;71975;47.068;15.408;2023-09-12T16:01:22;97000.34;;;31.94;38.22
1694;BME280;71975;47.068;15.408;2023-09-12T16:06:28;97001.84;;;31.95;38.91
1694;BME280;71975;47.068;15.408;2023-09-12T16:11:33;97009.13;;;31.98;39.12
1694;BME280;71975;47.068;15.408;2023-09-12T16:16:40;97012.63;;;31.76;39.90
1694;BME280;71975;47.068;15.408;2023-09-12T16:21:45;97008.72;;;31.71;39.78
1694;BME280;71975;47.068;15.408;2023-09-12T16:26:50;97006.84;;;31.66;39.88
1694;BME280;71975;47.068;15.408;2023-09-12T16:31:58;97004.03;;;31.66;40.53
1694;BME280;71975;47.068;15.408;2023-09-12T16:37:10;97011.72;;;31.66;40.78
1694;BME280;71975;47.068;15.408;2023-09-12T16:42:18;97021.94;;;31.48;41.40
1694;BME280;71975;47.068;15.408;2023-09-12T16:47:28;97014.63;;;31.45;41.38
1694;BME280;71975;47.068;15.408;2023-09-12T16:52:33;97013.06;;;31.21;43.40
1694;BME280;71975;47.068;15.408;2023-09-12T16:57:38;97013.47;;;30.90;44.12
1694;BME280;71975;47.068;15.408;2023-09-12T17:02:45;97009.94;;;30.61;45.20
1694;BME280;71975;47.068;15.408;2023-09-12T17:07:51;97010.22;;;30.50;45.77
1694;BME280;71975;47.068;15.408;2023-09-12T17:12:57;97005.72;;;30.39;45.49
1694;BME280;71975;47.068;15.408;2023-09-12T17:18:05;97016.56;;;30.22;46.38
1694;BME280;71975;47.068;15.408;2023-09-12T17:23:14;97013.63;;;30.07;47.05
1694;BME280;71975;47.068;15.408;2023-09-12T17:28:21;97018.41;;;29.99;47.36
1694;BME280;71975;47.068;15.408;2023-09-12T17:33:28;97032.56;;;29.80;48.18
1694;BME280;71975;47.068;15.408;2023-09-12T17:38:36;97028.81;;;29.78;47.81
1694;BME280;71975;47.068;15.408;2023-09-12T17:43:43;97036.28;;;29.62;48.95
1694;BME280;71975;47.068;15.408;2023-09-12T17:48:52;97040.84;;;29.39;50.25
1694;BME280;71975;47.068;15.408;2023-09-12T17:53:59;97051.81;;;29.24;50.94
1694;BME280;71975;47.068;15.408;2023-09-12T17:59:06;97051.19;;;29.18;50.65
1694;BME280;71975;47.068;15.408;2023-09-12T18:04:17;97060.00;;;29.09;51.05
1694;BME280;71975;47.068;15.408;2023-09-12T18:09:26;97062.56;;;28.93;51.60
1694;BME280;71975;47.068;15.408;2023-09-12T18:14:34;97059.25;;;28.82;52.33
1694;BME280;71975;47.068;15.408;2023-09-12T18:19:47;97060.44;;;28.73;52.90
1694;BME280;71975;47.068;15.408;2023-09-12T18:24:54;97060.19;;;28.58;53.69
1694;BME280;71975;47.068;15.408;2023-09-12T18:30:06;97067.66;;;28.37;55.12
1694;BME280;71975;47.068;15.408;2023-09-12T18:35:16;97077.28;;;28.23;55.59
1694;BME280;71975;47.068;15.408;2023-09-12T18:40:26;97085.38;;;28.08;56.29
1694;BME280;71975;47.068;15.408;2023-09-12T18:45:35;97091.16;;;27.91;56.99
1694;BME280;71975;47.068;15.408;2023-09-12T18:50:43;97088.44;;;27.73;57.46
1694;BME280;71975;47.068;15.408;2023-09-12T18:55:55;97091.31;;;27.48;58.80
1694;BME280;71975;47.068;15.408;2023-09-12T19:01:04;97096.97;;;27.37;59.34
1694;BME280;71975;47.068;15.408;2023-09-12T19:06:19;97098.53;;;27.33;59.56
1694;BME280;71975;47.068;15.408;2023-09-12T19:11:39;97097.06;;;27.32;59.26
1694;BME280;71975;47.068;15.408;2023-09-12T19:16:54;97106.06;;;27.19;60.24
1694;BME280;71975;47.068;15.408;2023-09-12T19:22:07;97111.16;;;27.15;60.45
1694;BME280;71975;47.068;15.408;2023-09-12T19:27:23;97102.94;;;27.04;61.29
1694;BME280;71975;47.068;15.408;2023-09-12T19:32:29;97107.59;;;26.96;61.40
1694;BME280;71975;47.068;15.408;2023-09-12T19:37:38;97104.81;;;26.96;61.41
1694;BME280;71975;47.068;15.408;2023-09-12T19:42:52;97096.16;;;26.81;62.31
1694;BME280;71975;47.068;15.408;2023-09-12T19:48:04;97106.19;;;26.84;61.94
1694;BME280;71975;47.068;15.408;2023-09-12T19:53:18;97101.19;;;26.82;62.05
1694;BME280;71975;47.068;15.408;2023-09-12T19:58:26;97109.66;;;26.66;62.95
1694;BME280;71975;47.068;15.408;2023-09-12T20:03:38;97111.22;;;26.61;62.74
1694;BME280;71975;47.068;15.408;2023-09-12T20:08:51;97122.16;;;26.54;63.16
1694;BME280;71975;47.068;15.408;2023-09-12T20:13:59;97120.09;;;26.30;64.35
1694;BME280;71975;47.068;15.408;2023-09-12T20:19:08;97115.53;;;26.32;63.93
1694;BME280;71975;47.068;15.408;2023-09-12T20:24:22;97116.00;;;26.37;63.45
1694;BME280;71975;47.068;15.408;2023-09-12T20:29:29;97117.09;;;26.28;63.76
1694;BME280;71975;47.068;15.408;2023-09-12T20:34:35;97111.38;;;26.15;64.26
1694;BME280;71975;47.068;15.408;2023-09-12T20:39:42;97114.59;;;26.24;63.81
1694;BME280;71975;47.068;15.408;2023-09-12T20:44:50;97116.41;;;26.16;63.87
1694;BME280;71975;47.068;15.408;2023-09-12T20:49:58;97112.91;;;26.10;63.95
1694;BME280;71975;47.068;15.408;2023-09-12T20:55:11;97112.19;;;26.04;64.38
1694;BME280;71975;47.068;15.408;2023-09-12T21:00:16;97114.28;;;25.93;64.76
1694;BME280;71975;47.068;15.408;2023-09-12T21:05:22;97121.19;;;25.81;65.26
1694;BME280;71975;47.068;15.408;2023-09-12T21:10:26;97099.44;;;25.90;64.76
1694;BME280;71975;47.068;15.408;2023-09-12T21:15:29;97108.31;;;25.83;65.10
1694;BME280;71975;47.068;15.408;2023-09-12T21:20:33;97106.56;;;25.80;65.06
1694;BME280;71975;47.068;15.408;2023-09-12T21:25:37;97098.09;;;25.67;65.71
1694;BME280;71975;47.068;15.408;2023-09-12T21:30:40;97094.59;;;25.61;65.98
1694;BME280;71975;47.068;15.408;2023-09-12T21:35:43;97100.22;;;25.50;66.16
1694;BME280;71975;47.068;15.408;2023-09-12T21:40:47;97102.69;;;25.53;66.19
1694;BME280;71975;47.068;15.408;2023-09-12T21:45:50;97104.28;;;25.38;66.76
1694;BME280;71975;47.068;15.408;2023-09-12T21:50:54;97106.81;;;25.36;66.98
1694;BME280;71975;47.068;15.408;2023-09-12T21:55:58;97110.84;;;25.35;66.68
1694;BME280;71975;47.068;15.408;2023-09-12T22:01:01;97104.31;;;25.27;67.46
1694;BME280;71975;47.068;15.408;2023-09-12T22:06:05;97113.22;;;25.14;67.97
1694;BME280;71975;47.068;15.408;2023-09-12T22:11:12;97108.16;;;25.18;67.66
1694;BME280;71975;47.068;15.408;2023-09-12T22:16:15;97113.47;;;25.11;67.70
1694;BME280;71975;47.068;15.408;2023-09-12T22:21:18;97117.78;;;25.00;68.27
1694;BME280;71975;47.068;15.408;2023-09-12T22:26:22;97100.63;;;25.08;68.13
1694;BME280;71975;47.068;15.408;2023-09-12T22:31:25;97099.44;;;24.92;68.78
1694;BME280;71975;47.068;15.408;2023-09-12T22:36:28;97097.16;;;24.90;68.69
1694;BME280;71975;47.068;15.408;2023-09-12T22:41:33;97095.91;;;24.91;68.52
1694;BME280;71975;47.068;15.408;2023-09-12T22:46:36;97089.66;;;24.80;68.90
1694;BME280;71975;47.068;15.408;2023-09-12T22:51:40;97086.84;;;24.85;68.42
1694;BME280;71975;47.068;15.408;2023-09-12T22:56:44;97082.59;;;24.79;68.64
1694;BME280;71975;47.068;15.408;2023-09-12T23:01:47;97084.34;;;24.76;68.46
1694;BME280;71975;47.068;15.408;2023-09-12T23:06:50;97076.81;;;24.71;68.83
1694;BME280;71975;47.068;15.408;2023-09-12T23:11:54;97080.38;;;24.61;69.19
1694;BME280;71975;47.068;15.408;2023-09-12T23:16:57;97074.31;;;24.62;68.77
1694;BME280;71975;47.068;15.408;2023-09-12T23:22:00;97079.84;;;24.57;69.68
1694;BME280;71975;47.068;15.408;2023-09-12T23:27:04;97070.31;;;24.52;69.43
1694;BME280;71975;47.068;15.408;2023-09-12T23:32:08;97065.81;;;24.44;70.06
1694;BME280;71975;47.068;15.408;2023-09-12T23:37:11;97064.81;;;24.30;71.25
1694;BME280;71975;47.068;15.408;2023-09-12T23:42:17;97060.06;;;24.14;71.46
1694;BME280;71975;47.068;15.408;2023-09-12T23:47:21;97066.34;;;24.09;72.18
1694;BME280;71975;47.068;15.408;2023-09-12T23:52:24;97058.03;;;24.20;71.90
1694;BME280;71975;47.068;15.408;2023-09-12T23:57:30;97051.50;;;24.17;71.89
